This is the latest recevied weather packets stored in our database for station/object KQ4LLM. If no packets are shown the sender has not sent any weather packets the latest 10 day(s).
| Time | Temp. | Humidity | Pressure | Rain* | Wind** | Luminosity | Snow |
|---|---|---|---|---|---|---|---|
| 1778114916 | 18.33° C | 98% | - | 0 mm | - | - | - |
| 1778114613 | 18.33° C | 98% | - | 0 mm | - | - | - |
| 1778114310 | 18.33° C | 98% | - | 0 mm | - | - | - |
| 1778114006 | 18.33° C | 98% | - | 0 mm | - | - | - |
| 1778113700 | 18.33° C | 98% | - | 0 mm | - | - | - |
| 1778113397 | 18.33° C | 98% | - | 0 mm | - | - | - |
| 1778113090 | 18.33° C | 97% | - | 0 mm | - | - | - |
| 1778112787 | 18.33° C | 97% | - | 0 mm | - | - | - |
| 1778112482 | 18.33° C | 97% | - | 0 mm | - | - | - |
| 1778112172 | 18.89° C | 97% | - | 0 mm | - | - | - |
| 1778111869 | 18.89° C | 97% | - | 0 mm | - | - | - |
| 1778111564 | 18.89° C | 97% | - | 0 mm | - | - | - |
| 1778111262 | 18.89° C | 96% | - | 0 mm | - | - | - |
| 1778110959 | 19.44° C | 95% | - | 0 mm | - | - | - |
| 1778110656 | 19.44° C | 94% | - | 1.78 mm | - | - | - |
| 1778110353 | 20° C | 92% | - | 19.81 mm | - | - | - |
| 1778110049 | 21.11° C | 89% | - | 18.03 mm | - | - | - |
| 1778109744 | 22.22° C | 82% | - | 0 mm | - | - | - |
| 1778109441 | 22.22° C | 81% | - | 0 mm | - | - | - |
| 1778109140 | 22.78° C | 79% | - | 0 mm | - | - | - |
| 1778108836 | 22.78° C | 78% | - | 0 mm | - | - | - |
| 1778108533 | 23.33° C | 77% | - | 0 mm | - | - | - |
| 1778108229 | 23.33° C | 75% | - | 0 mm | - | - | - |
| 1778107926 | 23.33° C | 76% | - | 0 mm | - | - | - |
| 1778107623 | 23.33° C | 77% | - | 0 mm | - | - | - |
* Rain latest hour (hover to see other rain measurements)
** Current wind speed in m/s (hover to see current wind gust speed)